Time;durP1;ratioP1;P1;durP2;ratioP2;P2;SDS_P1;SDS_P2;PMS_P1;PMS_P2;Temp;Humidity;BMP_temperature;BMP_pressure;BME280_temperature;BME280_humidity;BME280_pressure;Samples;Min_cycle;Max_cycle;Signal;HPM_P1;HPM_P2
2022/06/26 00:04:41;;;;;;;5.47;5.03;;;;;;;;;;10287339;28;20160;-80
2022/06/26 00:09:43;;;;;;;5.82;5.32;;;;;;;;;;10278144;28;20055;-80
2022/06/26 00:14:43;;;;;;;5.53;5.03;;;;;;;;;;10299642;28;20486;-79
2022/06/26 00:19:44;;;;;;;6.65;5.32;;;;;;;;;;10289697;28;20050;-80
2022/06/26 00:24:45;;;;;;;6.20;5.37;;;;;;;;;;10282976;28;20058;-80
2022/06/26 00:29:45;;;;;;;6.28;5.78;;;;;;;;;;10299319;28;20305;-80
2022/06/26 00:34:46;;;;;;;6.00;5.53;;;;;;;;;;10297292;28;20057;-81
2022/06/26 00:39:48;;;;;;;5.72;4.93;;;;;;;;;;10288921;28;20101;-81
2022/06/26 00:44:52;;;;;;;6.53;5.57;;;;;;;;;;10305419;28;20063;-82
2022/06/26 00:49:52;;;;;;;5.53;5.00;;;;;;;;;;10304449;28;20110;-79
2022/06/26 00:54:53;;;;;;;6.00;5.40;;;;;;;;;;10330638;28;20054;-82
2022/06/26 00:59:58;;;;;;;5.35;4.85;;;;;;;;;;10324056;28;20047;-79
2022/06/26 01:05:01;;;;;;;5.28;4.88;;;;;;;;;;10323689;28;20047;-79
2022/06/26 01:10:07;;;;;;;5.57;5.18;;;;;;;;;;10312468;28;20051;-80
2022/06/26 01:15:36;;;;;;;5.70;5.18;;;;;;;;;;10300987;28;20479;-81
2022/06/26 01:20:38;;;;;;;5.28;4.88;;;;;;;;;;10284971;28;20126;-81
2022/06/26 01:25:46;;;;;;;5.63;5.10;;;;;;;;;;10287900;28;20070;-85
2022/06/26 01:30:48;;;;;;;5.50;5.10;;;;;;;;;;10291356;28;20572;-81
2022/06/26 01:35:48;;;;;;;6.00;5.40;;;;;;;;;;10313707;28;20062;-82
2022/06/26 01:40:51;;;;;;;;;;;;;;;;;;10303674;28;20046;-81
2022/06/26 01:45:52;;;;;;;6.50;5.20;;;;;;;;;;10297707;28;20557;-79
2022/06/26 01:51:04;;;;;;;6.00;5.40;;;;;;;;;;10287157;28;20050;-82
2022/06/26 01:56:06;;;;;;;5.60;5.10;;;;;;;;;;10272408;28;20066;-82
2022/06/26 02:01:11;;;;;;;5.50;5.03;;;;;;;;;;10305220;28;20051;-81
2022/06/26 02:06:12;;;;;;;5.32;4.93;;;;;;;;;;10305039;28;20055;-80
2022/06/26 02:16:33;;;;;;;5.40;4.90;;;;;;;;;;10275729;28;20054;-80
2022/06/26 02:21:38;;;;;;;5.88;4.88;;;;;;;;;;10291568;28;20107;-81
2022/06/26 02:26:39;;;;;;;5.47;5.00;;;;;;;;;;10301113;28;20163;-85
2022/06/26 02:31:42;;;;;;;5.07;4.65;;;;;;;;;;10297264;28;20055;-80
2022/06/26 02:36:43;;;;;;;5.03;4.63;;;;;;;;;;10260167;28;20042;-80
2022/06/26 02:41:44;;;;;;;5.90;5.40;;;;;;;;;;10288648;28;20038;-80
2022/06/26 02:46:44;;;;;;;5.93;5.32;;;;;;;;;;10291262;28;20124;-80
2022/06/26 02:51:46;;;;;;;5.85;5.38;;;;;;;;;;10274112;28;20062;-80
2022/06/26 02:56:47;;;;;;;5.28;4.78;;;;;;;;;;10292609;28;20059;-80
2022/06/26 03:01:48;;;;;;;5.83;5.33;;;;;;;;;;10293849;28;20050;-82
2022/06/26 03:07:36;;;;;;;6.30;5.70;;;;;;;;;;10272559;23;20062;-81
2022/06/26 03:12:42;;;;;;;6.53;5.93;;;;;;;;;;10228588;28;20530;-81
2022/06/26 03:17:44;;;;;;;6.05;5.45;;;;;;;;;;10236767;28;20055;-81
2022/06/26 03:22:46;;;;;;;5.50;5.03;;;;;;;;;;10239892;28;20391;-81
2022/06/26 03:27:50;;;;;;;5.30;4.90;;;;;;;;;;10245664;28;20130;-80
2022/06/26 03:32:54;;;;;;;5.90;5.40;;;;;;;;;;10242475;28;20057;-82
2022/06/26 03:37:56;;;;;;;6.38;5.88;;;;;;;;;;10241532;28;20510;-81
2022/06/26 03:42:57;;;;;;;5.50;5.10;;;;;;;;;;10225403;28;20047;-81
2022/06/26 03:47:58;;;;;;;5.63;5.13;;;;;;;;;;10237402;28;20079;-85
2022/06/26 03:52:59;;;;;;;5.97;5.32;;;;;;;;;;10236806;28;20062;-81
2022/06/26 03:58:00;;;;;;;7.55;6.00;;;;;;;;;;10280911;28;20031;-85
2022/06/26 04:03:02;;;;;;;6.38;5.70;;;;;;;;;;10245172;28;20260;-82
2022/06/26 04:08:04;;;;;;;5.87;5.47;;;;;;;;;;10252680;28;20076;-83
2022/06/26 04:13:10;;;;;;;6.22;5.63;;;;;;;;;;10199282;28;20066;-80
2022/06/26 04:18:13;;;;;;;5.35;4.95;;;;;;;;;;10227306;28;20067;-80
2022/06/26 04:23:15;;;;;;;5.90;5.40;;;;;;;;;;10219786;28;20116;-81
2022/06/26 04:28:18;;;;;;;6.25;5.70;;;;;;;;;;10261261;28;20098;-80
2022/06/26 04:33:20;;;;;;;6.18;5.70;;;;;;;;;;10261547;28;20158;-81
2022/06/26 04:38:21;;;;;;;6.72;5.20;;;;;;;;;;10219036;29;20066;-79
2022/06/26 04:43:23;;;;;;;5.00;4.60;;;;;;;;;;10213436;28;20052;-81
2022/06/26 04:48:29;;;;;;;5.60;5.10;;;;;;;;;;10225067;28;20107;-80
2022/06/26 04:53:31;;;;;;;5.05;4.60;;;;;;;;;;10244039;28;20053;-87
2022/06/26 04:58:31;;;;;;;5.88;5.30;;;;;;;;;;10228745;28;20503;-81
2022/06/26 05:03:32;;;;;;;5.38;4.88;;;;;;;;;;10222324;28;20154;-81
2022/06/26 05:08:53;;;;;;;5.93;5.28;;;;;;;;;;10228108;28;20052;-79
2022/06/26 05:13:54;;;;;;;5.55;5.15;;;;;;;;;;10219064;28;20138;-79
2022/06/26 05:19:10;;;;;;;6.75;6.15;;;;;;;;;;10242735;28;20127;-80
2022/06/26 05:24:13;;;;;;;6.10;5.60;;;;;;;;;;10244044;28;20047;-80
2022/06/26 05:29:20;;;;;;;6.30;5.60;;;;;;;;;;10230585;28;20086;-82
2022/06/26 05:34:20;;;;;;;6.00;5.43;;;;;;;;;;10247179;28;20199;-78
2022/06/26 05:39:21;;;;;;;6.10;5.60;;;;;;;;;;10237713;28;20050;-79
2022/06/26 05:44:22;;;;;;;5.45;4.97;;;;;;;;;;10232517;28;20051;-77
2022/06/26 05:49:25;;;;;;;4.80;4.38;;;;;;;;;;10212790;28;20044;-77
2022/06/26 05:54:45;;;;;;;5.32;4.60;;;;;;;;;;10230915;28;20738;-78
2022/06/26 06:00:08;;;;;;;4.40;4.10;;;;;;;;;;10213742;29;20051;-78
2022/06/26 06:05:18;;;;;;;4.03;3.72;;;;;;;;;;10202205;28;20138;-78
2022/06/26 06:10:20;;;;;;;4.77;4.37;;;;;;;;;;10225262;28;20047;-77
2022/06/26 06:15:26;;;;;;;3.65;3.35;;;;;;;;;;10221728;28;20592;-78
2022/06/26 06:20:30;;;;;;;3.25;3.05;;;;;;;;;;10201696;28;20043;-79
2022/06/26 06:25:31;;;;;;;2.85;2.65;;;;;;;;;;10202099;28;20052;-79
2022/06/26 06:30:35;;;;;;;3.40;3.10;;;;;;;;;;10217360;28;20138;-78
2022/06/26 06:35:36;;;;;;;2.83;2.63;;;;;;;;;;10248921;28;20062;-79
2022/06/26 06:40:45;;;;;;;3.22;2.80;;;;;;;;;;10232381;28;20426;-79
2022/06/26 06:45:49;;;;;;;3.42;3.13;;;;;;;;;;10228001;28;20051;-79
2022/06/26 06:50:53;;;;;;;2.80;2.60;;;;;;;;;;10241894;28;20055;-78
2022/06/26 06:55:57;;;;;;;3.22;2.95;;;;;;;;;;10232084;28;20063;-79
2022/06/26 07:01:00;;;;;;;2.40;2.20;;;;;;;;;;10216263;29;20496;-78
2022/06/26 07:06:02;;;;;;;2.55;2.35;;;;;;;;;;10226904;28;20135;-78
2022/06/26 07:11:03;;;;;;;2.70;2.50;;;;;;;;;;10218164;28;20158;-77
2022/06/26 07:16:03;;;;;;;2.92;2.72;;;;;;;;;;10235052;28;20613;-76
2022/06/26 07:21:04;;;;;;;2.97;2.78;;;;;;;;;;10224280;28;21003;-78
2022/06/26 07:26:04;;;;;;;3.22;2.92;;;;;;;;;;10229804;28;20057;-78
2022/06/26 07:31:11;;;;;;;3.50;3.20;;;;;;;;;;10227440;28;20091;-79
2022/06/26 07:36:12;;;;;;;3.85;3.08;;;;;;;;;;10204181;28;20226;-82
2022/06/26 07:41:13;;;;;;;3.30;3.00;;;;;;;;;;10198364;28;20526;-79
2022/06/26 07:46:13;;;;;;;5.53;4.55;;;;;;;;;;10236774;28;20077;-77
2022/06/26 07:51:14;;;;;;;4.03;3.55;;;;;;;;;;10230966;28;20043;-78
2022/06/26 07:56:14;;;;;;;4.78;3.60;;;;;;;;;;10235094;28;20075;-78
2022/06/26 08:01:15;;;;;;;4.82;4.32;;;;;;;;;;10242071;28;20131;-79
2022/06/26 08:06:17;;;;;;;3.47;2.30;;;;;;;;;;10238722;28;20059;-80
2022/06/26 08:11:17;;;;;;;4.55;3.88;;;;;;;;;;10248620;28;20771;-80
2022/06/26 08:16:18;;;;;;;3.22;2.50;;;;;;;;;;10247459;28;20058;-78
2022/06/26 08:26:44;;;;;;;2.10;1.98;;;;;;;;;;10248460;28;20055;-79
2022/06/26 08:31:55;;;;;;;3.15;2.85;;;;;;;;;;10224750;28;20044;-80
2022/06/26 08:36:55;;;;;;;4.60;1.88;;;;;;;;;;10228238;28;20154;-79
2022/06/26 08:42:04;;;;;;;2.15;2.05;;;;;;;;;;10233986;28;20092;-80
2022/06/26 08:47:04;;;;;;;8.43;7.63;;;;;;;;;;10224109;28;20103;-80
2022/06/26 08:52:05;;;;;;;6.68;5.25;;;;;;;;;;10245752;28;20130;-80
2022/06/26 08:57:05;;;;;;;1.80;1.70;;;;;;;;;;10239495;28;20054;-83
2022/06/26 09:02:06;;;;;;;4.70;3.75;;;;;;;;;;10241088;28;20046;-80
2022/06/26 09:07:07;;;;;;;3.07;2.77;;;;;;;;;;10236421;28;20055;-78
2022/06/26 09:12:08;;;;;;;2.20;2.05;;;;;;;;;;10225122;28;20495;-77
2022/06/26 09:17:12;;;;;;;2.55;2.30;;;;;;;;;;10231982;28;20077;-76
2022/06/26 09:22:14;;;;;;;2.90;2.15;;;;;;;;;;10189930;29;20142;-77
2022/06/26 09:27:15;;;;;;;2.78;2.58;;;;;;;;;;10226942;28;20051;-75
2022/06/26 09:32:16;;;;;;;14.13;12.83;;;;;;;;;;10216459;28;20395;-78
2022/06/26 09:37:17;;;;;;;2.93;2.43;;;;;;;;;;10222757;28;20056;-78
2022/06/26 09:42:19;;;;;;;6.85;6.18;;;;;;;;;;10222796;28;20059;-82
2022/06/26 09:47:20;;;;;;;5.83;5.23;;;;;;;;;;10214817;28;20052;-78
2022/06/26 09:52:22;;;;;;;4.32;4.00;;;;;;;;;;10225153;29;20039;-78
2022/06/26 09:57:25;;;;;;;1.83;1.73;;;;;;;;;;10229097;28;20063;-76
2022/06/26 10:07:51;;;;;;;1.48;1.38;;;;;;;;;;10225079;28;20609;-76
2022/06/26 10:12:54;;;;;;;2.05;1.85;;;;;;;;;;10237822;28;20051;-77
2022/06/26 10:18:06;;;;;;;4.10;3.53;;;;;;;;;;10215142;28;20055;-77
2022/06/26 10:23:07;;;;;;;1.13;1.10;;;;;;;;;;10211691;28;20051;-75
2022/06/26 10:28:17;;;;;;;1.20;1.10;;;;;;;;;;10221178;28;20051;-77
2022/06/26 10:33:18;;;;;;;0.95;0.95;;;;;;;;;;10211881;29;20039;-76
2022/06/26 10:38:18;;;;;;;0.97;0.87;;;;;;;;;;10219812;28;20047;-77
2022/06/26 10:43:21;;;;;;;1.40;1.30;;;;;;;;;;10216769;28;20291;-78
2022/06/26 10:48:24;;;;;;;1.23;1.13;;;;;;;;;;10212744;28;20746;-76
2022/06/26 10:53:26;;;;;;;1.48;1.27;;;;;;;;;;10215891;28;20074;-77
2022/06/26 10:58:43;;;;;;;3.25;2.85;;;;;;;;;;10232311;28;20071;-77
2022/06/26 11:03:43;;;;;;;1.23;1.13;;;;;;;;;;10225779;28;20047;-76
2022/06/26 11:08:51;;;;;;;2.13;1.60;;;;;;;;;;10216163;28;20103;-76
2022/06/26 11:13:59;;;;;;;1.65;1.25;;;;;;;;;;10234423;28;20072;-75
2022/06/26 11:19:00;;;;;;;1.92;1.70;;;;;;;;;;10230643;28;20050;-75
2022/06/26 11:24:02;;;;;;;2.13;1.35;;;;;;;;;;10213513;28;20043;-76
2022/06/26 11:29:03;;;;;;;2.88;1.48;;;;;;;;;;10219912;29;20048;-73
2022/06/26 11:34:07;;;;;;;4.82;3.72;;;;;;;;;;10211883;29;20511;-73
2022/06/26 11:39:07;;;;;;;1.40;1.30;;;;;;;;;;10203648;29;20050;-74
2022/06/26 11:44:07;;;;;;;1.93;1.63;;;;;;;;;;10211448;28;20055;-75
2022/06/26 11:49:08;;;;;;;1.70;1.60;;;;;;;;;;10216096;28;20050;-76
2022/06/26 11:54:09;;;;;;;1.30;1.20;;;;;;;;;;10213845;28;20046;-77
2022/06/26 11:59:10;;;;;;;2.27;1.50;;;;;;;;;;10224908;29;20044;-77
2022/06/26 12:04:14;;;;;;;1.30;1.20;;;;;;;;;;10210494;28;20052;-77
2022/06/26 12:09:19;;;;;;;5.45;4.95;;;;;;;;;;10221614;28;20047;-76
2022/06/26 12:14:23;;;;;;;1.50;1.40;;;;;;;;;;10215504;28;20412;-77
2022/06/26 12:19:25;;;;;;;2.25;1.45;;;;;;;;;;10209200;28;20156;-75
2022/06/26 12:24:25;;;;;;;2.05;1.30;;;;;;;;;;10209107;28;20417;-76
2022/06/26 12:29:27;;;;;;;1.40;1.30;;;;;;;;;;10204337;29;20051;-77
2022/06/26 12:34:27;;;;;;;1.40;1.30;;;;;;;;;;10227868;28;20036;-76
2022/06/26 12:39:27;;;;;;;2.10;1.50;;;;;;;;;;10203275;28;20051;-77
2022/06/26 12:44:29;;;;;;;2.13;1.40;;;;;;;;;;10202860;28;20055;-75
2022/06/26 12:49:29;;;;;;;1.43;1.33;;;;;;;;;;10216183;28;20054;-75
2022/06/26 12:54:30;;;;;;;1.50;1.40;;;;;;;;;;10237164;28;20043;-78
2022/06/26 12:59:31;;;;;;;1.35;1.25;;;;;;;;;;10228880;28;20043;-77
2022/06/26 13:04:31;;;;;;;1.67;1.40;;;;;;;;;;10227664;29;20056;-75
2022/06/26 13:09:32;;;;;;;1.47;1.37;;;;;;;;;;10241950;28;20086;-75
2022/06/26 13:14:33;;;;;;;1.60;1.50;;;;;;;;;;10230913;28;20158;-76
2022/06/26 13:19:34;;;;;;;2.33;1.65;;;;;;;;;;10227225;28;20411;-76
2022/06/26 13:24:34;;;;;;;1.50;1.40;;;;;;;;;;10218111;28;20070;-76
2022/06/26 13:29:36;;;;;;;1.77;1.67;;;;;;;;;;10221738;28;20058;-76
2022/06/26 13:34:36;;;;;;;1.70;1.60;;;;;;;;;;10217934;28;20058;-76
2022/06/26 13:39:39;;;;;;;1.97;1.87;;;;;;;;;;10203519;28;20058;-75
2022/06/26 13:44:39;;;;;;;1.63;1.52;;;;;;;;;;10221601;28;20055;-73
2022/06/26 13:49:45;;;;;;;1.90;1.70;;;;;;;;;;10213353;28;20051;-76
2022/06/26 13:54:45;;;;;;;1.50;1.40;;;;;;;;;;10220407;28;20046;-77
2022/06/26 13:59:45;;;;;;;1.63;1.53;;;;;;;;;;10208080;29;20063;-74
2022/06/26 14:04:46;;;;;;;1.67;1.57;;;;;;;;;;10219410;28;20056;-76
2022/06/26 14:09:46;;;;;;;2.20;1.87;;;;;;;;;;10214760;28;20052;-77
2022/06/26 14:14:48;;;;;;;1.70;1.60;;;;;;;;;;10233966;28;20096;-76
2022/06/26 14:19:48;;;;;;;1.95;1.65;;;;;;;;;;10244365;28;20108;-76
2022/06/26 14:30:08;;;;;;;1.60;1.50;;;;;;;;;;10224780;28;20047;-79
2022/06/26 14:35:09;;;;;;;2.15;1.67;;;;;;;;;;10228251;28;20122;-76
2022/06/26 14:40:11;;;;;;;3.23;1.90;;;;;;;;;;10224717;28;20178;-76
2022/06/26 14:45:12;;;;;;;1.67;1.58;;;;;;;;;;10218965;28;20107;-74
2022/06/26 14:50:13;;;;;;;1.80;1.70;;;;;;;;;;10212339;28;20460;-75
2022/06/26 14:55:14;;;;;;;2.00;1.90;;;;;;;;;;10226926;28;20078;-76
2022/06/26 15:00:16;;;;;;;1.75;1.60;;;;;;;;;;10204924;28;20050;-78
2022/06/26 15:05:17;;;;;;;1.88;1.73;;;;;;;;;;10210010;28;20660;-78
2022/06/26 15:10:17;;;;;;;1.92;1.60;;;;;;;;;;10212426;28;20098;-78
2022/06/26 15:15:19;;;;;;;;;;;;;;;;;;10237047;28;20093;-76
2022/06/26 15:20:19;;;;;;;2.17;1.70;;;;;;;;;;10212127;28;20022;-76
2022/06/26 15:25:20;;;;;;;;;;;;;;;;;;10229665;28;20048;-73
2022/06/26 15:30:20;;;;;;;1.70;1.60;;;;;;;;;;10209444;28;20003;-76
2022/06/26 15:35:20;;;;;;;;;;;;;;;;;;10211468;28;20423;-75
2022/06/26 15:40:21;;;;;;;2.08;1.90;;;;;;;;;;10220618;28;19919;-76
2022/06/26 15:45:21;;;;;;;;;;;;;;;;;;10221395;28;20111;-75
2022/06/26 15:50:22;;;;;;;1.90;1.70;;;;;;;;;;10207557;28;20347;-78
2022/06/26 15:55:26;;;;;;;1.58;1.48;;;;;;;;;;10212317;28;20046;-74
2022/06/26 16:00:27;;;;;;;2.58;1.58;;;;;;;;;;10215147;28;20050;-76
2022/06/26 16:05:27;;;;;;;1.60;1.50;;;;;;;;;;10213510;29;20142;-75
2022/06/26 16:10:28;;;;;;;1.90;1.70;;;;;;;;;;10214477;28;20070;-75
2022/06/26 16:15:28;;;;;;;1.60;1.50;;;;;;;;;;10219080;28;20067;-76
2022/06/26 16:20:28;;;;;;;1.67;1.57;;;;;;;;;;10202330;28;20047;-76
2022/06/26 16:30:48;;;;;;;1.75;1.65;;;;;;;;;;10201366;28;20055;-75
2022/06/26 16:35:48;;;;;;;1.80;1.70;;;;;;;;;;10217083;28;20467;-76
2022/06/26 16:40:54;;;;;;;2.10;2.00;;;;;;;;;;10204058;28;20046;-77
2022/06/26 16:45:55;;;;;;;1.90;1.80;;;;;;;;;;10236980;28;20066;-77
2022/06/26 16:50:56;;;;;;;1.80;1.70;;;;;;;;;;10253416;28;20142;-76
2022/06/26 16:55:57;;;;;;;1.80;1.70;;;;;;;;;;10224216;28;20459;-75
2022/06/26 17:00:57;;;;;;;2.13;2.00;;;;;;;;;;10214370;28;20054;-75
2022/06/26 17:05:58;;;;;;;2.80;2.30;;;;;;;;;;10230717;28;20582;-78
2022/06/26 17:11:07;;;;;;;1.80;1.70;;;;;;;;;;10226008;28;20135;-79
2022/06/26 17:16:09;;;;;;;2.33;2.00;;;;;;;;;;10211716;28;20051;-78
2022/06/26 17:21:10;;;;;;;;;;;;;;;;;;10222962;28;20059;-76
2022/06/26 17:26:11;;;;;;;1.80;1.70;;;;;;;;;;10248820;28;20279;-76
2022/06/26 17:31:11;;;;;;;2.13;1.90;;;;;;;;;;10231272;28;20070;-76
2022/06/26 17:36:11;;;;;;;2.10;1.70;;;;;;;;;;10218216;28;20052;-77
2022/06/26 17:41:15;;;;;;;1.87;1.77;;;;;;;;;;10212060;28;20085;-78
2022/06/26 17:46:16;;;;;;;1.92;1.83;;;;;;;;;;10217242;28;20116;-76
2022/06/26 17:51:17;;;;;;;2.00;1.90;;;;;;;;;;10220805;28;20442;-77
2022/06/26 17:56:17;;;;;;;2.00;1.80;;;;;;;;;;10233351;28;20119;-78
2022/06/26 18:01:18;;;;;;;5.50;2.10;;;;;;;;;;10218114;28;20075;-77
2022/06/26 18:06:18;;;;;;;2.00;1.90;;;;;;;;;;10215845;28;20059;-77
2022/06/26 18:11:19;;;;;;;1.87;1.70;;;;;;;;;;10216910;28;20071;-76
2022/06/26 18:16:19;;;;;;;1.80;1.70;;;;;;;;;;10230826;28;20776;-77
2022/06/26 18:21:19;;;;;;;2.80;2.10;;;;;;;;;;10225804;28;20126;-77
2022/06/26 18:26:20;;;;;;;1.90;1.80;;;;;;;;;;10216387;28;20135;-76
2022/06/26 18:31:20;;;;;;;2.97;2.70;;;;;;;;;;10220667;28;20134;-77
2022/06/26 18:36:24;;;;;;;2.70;2.50;;;;;;;;;;10226169;28;20058;-79
2022/06/26 18:41:27;;;;;;;2.33;2.13;;;;;;;;;;10237212;29;20067;-77
2022/06/26 18:46:27;;;;;;;2.97;1.90;;;;;;;;;;10231736;28;20086;-78
2022/06/26 18:51:28;;;;;;;3.00;2.20;;;;;;;;;;10227964;28;20479;-77
2022/06/26 18:56:30;;;;;;;2.20;2.00;;;;;;;;;;10223818;28;20053;-77
2022/06/26 19:01:31;;;;;;;2.60;2.40;;;;;;;;;;10226635;28;20562;-76
2022/06/26 19:06:31;;;;;;;2.60;2.40;;;;;;;;;;10222934;28;20060;-76
2022/06/26 19:16:51;;;;;;;2.30;2.10;;;;;;;;;;10213219;28;20040;-77
2022/06/26 19:21:51;;;;;;;2.30;2.10;;;;;;;;;;10217494;29;20154;-76
2022/06/26 19:26:52;;;;;;;3.27;2.67;;;;;;;;;;10228350;28;20448;-77
2022/06/26 19:31:53;;;;;;;2.87;2.67;;;;;;;;;;10219119;28;20513;-78
2022/06/26 19:36:54;;;;;;;1.88;1.77;;;;;;;;;;10207671;29;20448;-77
2022/06/26 19:42:18;;;;;;;3.60;2.70;;;;;;;;;;10202988;29;20047;-76
2022/06/26 19:47:15;;;;;;;3.47;3.17;;;;;;;;;;10211711;28;20059;-77
2022/06/26 19:52:15;;;;;;;2.90;2.70;;;;;;;;;;10221038;28;20378;-77
2022/06/26 19:57:16;;;;;;;2.30;2.10;;;;;;;;;;10214399;28;20824;-78
2022/06/26 20:02:18;;;;;;;2.97;2.07;;;;;;;;;;10218768;28;20047;-77
2022/06/26 20:07:18;;;;;;;2.15;1.98;;;;;;;;;;10217319;28;20051;-78
2022/06/26 20:12:19;;;;;;;2.50;2.30;;;;;;;;;;10228390;28;20063;-78
2022/06/26 20:17:19;;;;;;;3.47;3.17;;;;;;;;;;10223523;28;20504;-77
2022/06/26 20:22:19;;;;;;;2.30;2.13;;;;;;;;;;10219570;29;20059;-78
2022/06/26 20:27:20;;;;;;;1.87;1.73;;;;;;;;;;10231298;28;20058;-80
2022/06/26 20:32:20;;;;;;;2.50;2.30;;;;;;;;;;10216444;28;20466;-78
2022/06/26 20:37:21;;;;;;;2.97;2.63;;;;;;;;;;10220158;29;20044;-79
2022/06/26 20:42:22;;;;;;;2.60;2.40;;;;;;;;;;10214387;28;20081;-76
2022/06/26 20:47:22;;;;;;;2.77;2.57;;;;;;;;;;10222770;28;20177;-78
2022/06/26 20:52:22;;;;;;;2.30;2.10;;;;;;;;;;10217549;29;20510;-78
2022/06/26 20:57:23;;;;;;;3.20;2.90;;;;;;;;;;10203308;28;20048;-79
2022/06/26 21:02:24;;;;;;;2.60;2.40;;;;;;;;;;10209826;28;20280;-80
2022/06/26 21:07:24;;;;;;;2.45;2.25;;;;;;;;;;10209423;28;20476;-78
2022/06/26 21:12:25;;;;;;;3.63;2.60;;;;;;;;;;10213042;28;20048;-78
2022/06/26 21:17:27;;;;;;;3.55;3.13;;;;;;;;;;10236762;28;20051;-79
2022/06/26 21:22:27;;;;;;;2.42;2.22;;;;;;;;;;10254909;28;20147;-79
2022/06/26 21:27:28;;;;;;;2.50;2.30;;;;;;;;;;10254609;28;20051;-79
2022/06/26 21:32:30;;;;;;;2.50;2.30;;;;;;;;;;10231030;28;20035;-80
2022/06/26 21:37:32;;;;;;;2.28;2.10;;;;;;;;;;10237844;28;20051;-79
2022/06/26 21:42:32;;;;;;;2.30;2.15;;;;;;;;;;10217648;28;20056;-81
2022/06/26 21:47:34;;;;;;;;;;;;;;;;;;10246168;28;20047;-78
2022/06/26 21:52:35;;;;;;;2.10;2.00;;;;;;;;;;10234567;28;19918;-80
2022/06/26 21:57:37;;;;;;;2.35;2.15;;;;;;;;;;10244125;29;20043;-78
2022/06/26 22:02:38;;;;;;;2.90;2.70;;;;;;;;;;10220153;29;20059;-80
2022/06/26 22:07:39;;;;;;;3.58;2.30;;;;;;;;;;10197659;28;20138;-81
2022/06/26 22:12:39;;;;;;;2.40;2.20;;;;;;;;;;10224199;28;20058;-79
2022/06/26 22:17:40;;;;;;;2.53;2.10;;;;;;;;;;10237527;28;20055;-78
2022/06/26 22:22:40;;;;;;;1.92;1.83;;;;;;;;;;10218950;28;20077;-79
2022/06/26 22:27:56;;;;;;;2.00;1.90;;;;;;;;;;10230609;28;20060;-78
2022/06/26 22:32:58;;;;;;;1.70;1.60;;;;;;;;;;10231991;28;20056;-77
2022/06/26 22:37:59;;;;;;;2.07;1.93;;;;;;;;;;10250041;28;20059;-79
2022/06/26 22:43:01;;;;;;;1.93;1.83;;;;;;;;;;10242488;28;20051;-79
2022/06/26 22:48:01;;;;;;;2.05;1.85;;;;;;;;;;10223303;28;20525;-80
2022/06/26 22:53:02;;;;;;;2.00;1.90;;;;;;;;;;10231476;28;20135;-78
2022/06/26 22:58:02;;;;;;;2.40;2.20;;;;;;;;;;10233840;28;20142;-80
2022/06/26 23:03:04;;;;;;;2.43;2.23;;;;;;;;;;10221591;28;20071;-79
2022/06/26 23:08:05;;;;;;;2.45;2.25;;;;;;;;;;10237961;28;20283;-77
2022/06/26 23:13:06;;;;;;;2.53;2.33;;;;;;;;;;10236135;29;20055;-79
2022/06/26 23:18:07;;;;;;;2.40;2.20;;;;;;;;;;10251621;28;20086;-80
2022/06/26 23:23:08;;;;;;;3.00;2.78;;;;;;;;;;10240324;28;20048;-79
2022/06/26 23:28:08;;;;;;;2.72;2.50;;;;;;;;;;10253418;28;20056;-79
2022/06/26 23:33:09;;;;;;;2.97;2.75;;;;;;;;;;10244649;28;20135;-79
2022/06/26 23:38:09;;;;;;;2.60;2.40;;;;;;;;;;10229458;28;20136;-79
2022/06/26 23:43:09;;;;;;;3.85;3.45;;;;;;;;;;10225998;28;20063;-78
2022/06/26 23:48:11;;;;;;;3.45;3.15;;;;;;;;;;10221563;28;20064;-80
2022/06/26 23:53:12;;;;;;;3.00;2.80;;;;;;;;;;10204035;28;20051;-80
2022/06/26 23:58:13;;;;;;;2.90;2.60;;;;;;;;;;10211189;28;20106;-78
